sensor_id;sensor_type;location;lat;lon;timestamp;temperature;humidity
7472;DHT22;3777;48.722;8.110;2023-07-31T00:00:07;17.50;99.90
7472;DHT22;3777;48.722;8.110;2023-07-31T00:02:35;17.50;99.90
7472;DHT22;3777;48.722;8.110;2023-07-31T00:05:02;17.50;99.90
7472;DHT22;3777;48.722;8.110;2023-07-31T00:07:29;17.40;99.90
7472;DHT22;3777;48.722;8.110;2023-07-31T00:09:57;17.30;99.90
7472;DHT22;3777;48.722;8.110;2023-07-31T00:12:24;17.30;99.90
7472;DHT22;3777;48.722;8.110;2023-07-31T00:14:51;17.30;99.90
7472;DHT22;3777;48.722;8.110;2023-07-31T00:17:18;17.30;99.90
7472;DHT22;3777;48.722;8.110;2023-07-31T00:19:45;17.30;99.90
7472;DHT22;3777;48.722;8.110;2023-07-31T00:22:14;17.20;99.90
7472;DHT22;3777;48.722;8.110;2023-07-31T00:24:41;17.20;99.90
7472;DHT22;3777;48.722;8.110;2023-07-31T00:27:10;17.20;99.90
7472;DHT22;3777;48.722;8.110;2023-07-31T00:29:37;17.20;99.90
7472;DHT22;3777;48.722;8.110;2023-07-31T00:32:04;17.30;99.90
7472;DHT22;3777;48.722;8.110;2023-07-31T00:34:31;17.30;99.90
7472;DHT22;3777;48.722;8.110;2023-07-31T00:36:58;17.30;99.90
7472;DHT22;3777;48.722;8.110;2023-07-31T00:39:25;17.30;99.90
7472;DHT22;3777;48.722;8.110;2023-07-31T00:41:52;17.20;99.90
7472;DHT22;3777;48.722;8.110;2023-07-31T00:44:21;17.20;99.90
7472;DHT22;3777;48.722;8.110;2023-07-31T00:46:48;17.20;99.90
7472;DHT22;3777;48.722;8.110;2023-07-31T00:49:15;17.30;99.90
7472;DHT22;3777;48.722;8.110;2023-07-31T00:51:42;17.30;99.90
7472;DHT22;3777;48.722;8.110;2023-07-31T00:54:09;17.30;99.90
7472;DHT22;3777;48.722;8.110;2023-07-31T00:56:38;17.30;99.90
7472;DHT22;3777;48.722;8.110;2023-07-31T00:59:05;17.40;99.90
7472;DHT22;3777;48.722;8.110;2023-07-31T01:01:33;17.70;99.90
7472;DHT22;3777;48.722;8.110;2023-07-31T01:04:00;17.80;99.90
7472;DHT22;3777;48.722;8.110;2023-07-31T01:06:33;17.80;99.90
7472;DHT22;3777;48.722;8.110;2023-07-31T01:09:04;17.70;99.90
7472;DHT22;3777;48.722;8.110;2023-07-31T01:11:35;17.60;99.90
7472;DHT22;3777;48.722;8.110;2023-07-31T01:14:05;17.50;99.90
7472;DHT22;3777;48.722;8.110;2023-07-31T01:16:33;17.50;99.90
7472;DHT22;3777;48.722;8.110;2023-07-31T01:19:00;17.40;99.90
7472;DHT22;3777;48.722;8.110;2023-07-31T01:21:48;17.30;99.90
7472;DHT22;3777;48.722;8.110;2023-07-31T01:24:28;17.20;99.90
7472;DHT22;3777;48.722;8.110;2023-07-31T01:27:00;17.20;99.90
7472;DHT22;3777;48.722;8.110;2023-07-31T01:29:38;17.00;99.90
7472;DHT22;3777;48.722;8.110;2023-07-31T01:32:08;16.90;99.90
7472;DHT22;3777;48.722;8.110;2023-07-31T01:34:37;17.00;99.90
7472;DHT22;3777;48.722;8.110;2023-07-31T01:37:04;16.90;99.90
7472;DHT22;3777;48.722;8.110;2023-07-31T01:39:31;17.00;99.90
7472;DHT22;3777;48.722;8.110;2023-07-31T01:42:00;17.00;99.90
7472;DHT22;3777;48.722;8.110;2023-07-31T01:44:26;17.00;99.90
7472;DHT22;3777;48.722;8.110;2023-07-31T01:46:53;17.00;99.90
7472;DHT22;3777;48.722;8.110;2023-07-31T01:49:20;17.00;99.90
7472;DHT22;3777;48.722;8.110;2023-07-31T01:51:47;17.00;99.90
7472;DHT22;3777;48.722;8.110;2023-07-31T01:54:14;17.00;99.90
7472;DHT22;3777;48.722;8.110;2023-07-31T01:56:41;17.00;99.90
7472;DHT22;3777;48.722;8.110;2023-07-31T01:59:10;17.00;99.90
7472;DHT22;3777;48.722;8.110;2023-07-31T02:01:36;17.00;99.90
7472;DHT22;3777;48.722;8.110;2023-07-31T02:04:04;16.90;99.90
7472;DHT22;3777;48.722;8.110;2023-07-31T02:06:30;16.90;99.90
7472;DHT22;3777;48.722;8.110;2023-07-31T02:08:57;16.90;99.90
7472;DHT22;3777;48.722;8.110;2023-07-31T02:11:24;16.80;99.90
7472;DHT22;3777;48.722;8.110;2023-07-31T02:13:51;16.90;99.90
7472;DHT22;3777;48.722;8.110;2023-07-31T02:16:19;16.80;99.90
7472;DHT22;3777;48.722;8.110;2023-07-31T02:18:46;16.80;99.90
7472;DHT22;3777;48.722;8.110;2023-07-31T02:21:13;16.80;99.90
7472;DHT22;3777;48.722;8.110;2023-07-31T02:23:40;16.80;99.90
7472;DHT22;3777;48.722;8.110;2023-07-31T02:26:07;16.80;99.90
7472;DHT22;3777;48.722;8.110;2023-07-31T02:28:34;16.80;99.90
7472;DHT22;3777;48.722;8.110;2023-07-31T02:31:01;16.80;99.90
7472;DHT22;3777;48.722;8.110;2023-07-31T02:33:29;16.90;99.90
7472;DHT22;3777;48.722;8.110;2023-07-31T02:35:56;16.80;99.90
7472;DHT22;3777;48.722;8.110;2023-07-31T02:38:23;16.80;99.90
7472;DHT22;3777;48.722;8.110;2023-07-31T02:40:50;16.80;99.90
7472;DHT22;3777;48.722;8.110;2023-07-31T02:43:17;16.90;99.90
7472;DHT22;3777;48.722;8.110;2023-07-31T02:45:44;16.90;99.90
7472;DHT22;3777;48.722;8.110;2023-07-31T02:48:11;17.00;99.90
7472;DHT22;3777;48.722;8.110;2023-07-31T02:50:39;17.00;99.90
7472;DHT22;3777;48.722;8.110;2023-07-31T02:53:06;17.10;99.90
7472;DHT22;3777;48.722;8.110;2023-07-31T02:55:33;17.10;99.90
7472;DHT22;3777;48.722;8.110;2023-07-31T02:58:00;17.20;99.90
7472;DHT22;3777;48.722;8.110;2023-07-31T03:00:27;17.20;99.90
7472;DHT22;3777;48.722;8.110;2023-07-31T03:02:54;17.30;99.90
7472;DHT22;3777;48.722;8.110;2023-07-31T03:05:21;17.30;99.90
7472;DHT22;3777;48.722;8.110;2023-07-31T03:07:50;17.40;99.90
7472;DHT22;3777;48.722;8.110;2023-07-31T03:10:17;17.40;99.90
7472;DHT22;3777;48.722;8.110;2023-07-31T03:12:46;17.40;99.90
7472;DHT22;3777;48.722;8.110;2023-07-31T03:15:13;17.40;99.90
7472;DHT22;3777;48.722;8.110;2023-07-31T03:17:40;17.40;99.90
7472;DHT22;3777;48.722;8.110;2023-07-31T03:20:08;17.40;99.90
7472;DHT22;3777;48.722;8.110;2023-07-31T03:22:35;17.50;99.90
7472;DHT22;3777;48.722;8.110;2023-07-31T03:25:04;17.40;99.90
7472;DHT22;3777;48.722;8.110;2023-07-31T03:27:32;17.40;99.90
7472;DHT22;3777;48.722;8.110;2023-07-31T03:29:59;17.40;99.90
7472;DHT22;3777;48.722;8.110;2023-07-31T03:32:26;17.40;99.90
7472;DHT22;3777;48.722;8.110;2023-07-31T03:34:53;17.30;99.90
7472;DHT22;3777;48.722;8.110;2023-07-31T03:37:20;17.30;99.90
7472;DHT22;3777;48.722;8.110;2023-07-31T03:39:47;17.30;99.90
7472;DHT22;3777;48.722;8.110;2023-07-31T03:42:15;17.30;99.90
7472;DHT22;3777;48.722;8.110;2023-07-31T03:44:42;17.30;99.90
7472;DHT22;3777;48.722;8.110;2023-07-31T03:47:09;17.20;99.90
7472;DHT22;3777;48.722;8.110;2023-07-31T03:49:36;17.20;99.90
7472;DHT22;3777;48.722;8.110;2023-07-31T03:52:04;17.20;99.90
7472;DHT22;3777;48.722;8.110;2023-07-31T03:54:31;17.20;99.90
7472;DHT22;3777;48.722;8.110;2023-07-31T03:56:58;17.20;99.90
7472;DHT22;3777;48.722;8.110;2023-07-31T03:59:26;17.20;99.90
7472;DHT22;3777;48.722;8.110;2023-07-31T04:01:53;17.20;99.90
7472;DHT22;3777;48.722;8.110;2023-07-31T04:04:20;17.20;99.90
7472;DHT22;3777;48.722;8.110;2023-07-31T04:06:47;17.30;99.90
7472;DHT22;3777;48.722;8.110;2023-07-31T04:09:14;17.30;99.90
7472;DHT22;3777;48.722;8.110;2023-07-31T04:11:41;17.30;99.90
7472;DHT22;3777;48.722;8.110;2023-07-31T04:14:08;17.30;99.90
7472;DHT22;3777;48.722;8.110;2023-07-31T04:16:39;17.40;99.90
7472;DHT22;3777;48.722;8.110;2023-07-31T04:19:06;17.40;99.90
7472;DHT22;3777;48.722;8.110;2023-07-31T04:21:33;17.30;99.90
7472;DHT22;3777;48.722;8.110;2023-07-31T04:24:00;17.30;99.90
7472;DHT22;3777;48.722;8.110;2023-07-31T04:26:27;17.30;99.90
7472;DHT22;3777;48.722;8.110;2023-07-31T04:28:54;17.40;99.90
7472;DHT22;3777;48.722;8.110;2023-07-31T04:31:21;17.40;99.90
7472;DHT22;3777;48.722;8.110;2023-07-31T04:33:49;17.50;99.90
7472;DHT22;3777;48.722;8.110;2023-07-31T04:36:16;17.50;99.90
7472;DHT22;3777;48.722;8.110;2023-07-31T04:38:43;17.50;99.90
7472;DHT22;3777;48.722;8.110;2023-07-31T04:41:10;17.60;99.90
7472;DHT22;3777;48.722;8.110;2023-07-31T04:43:37;17.70;99.90
7472;DHT22;3777;48.722;8.110;2023-07-31T04:46:05;17.80;99.90
7472;DHT22;3777;48.722;8.110;2023-07-31T04:48:32;17.80;99.90
7472;DHT22;3777;48.722;8.110;2023-07-31T04:51:00;17.90;99.90
7472;DHT22;3777;48.722;8.110;2023-07-31T04:53:27;17.90;99.90
7472;DHT22;3777;48.722;8.110;2023-07-31T04:55:54;18.00;99.90
7472;DHT22;3777;48.722;8.110;2023-07-31T04:58:21;18.10;99.90
7472;DHT22;3777;48.722;8.110;2023-07-31T05:00:48;18.20;99.90
7472;DHT22;3777;48.722;8.110;2023-07-31T05:03:15;18.30;99.90
7472;DHT22;3777;48.722;8.110;2023-07-31T05:05:42;18.40;99.90
7472;DHT22;3777;48.722;8.110;2023-07-31T05:08:10;18.50;99.90
7472;DHT22;3777;48.722;8.110;2023-07-31T05:10:37;18.60;99.90
7472;DHT22;3777;48.722;8.110;2023-07-31T05:13:04;18.70;99.90
7472;DHT22;3777;48.722;8.110;2023-07-31T05:15:31;18.70;99.90
7472;DHT22;3777;48.722;8.110;2023-07-31T05:17:58;18.80;99.90
7472;DHT22;3777;48.722;8.110;2023-07-31T05:20:25;18.90;99.90
7472;DHT22;3777;48.722;8.110;2023-07-31T05:22:53;19.00;99.90
7472;DHT22;3777;48.722;8.110;2023-07-31T05:25:21;19.00;99.90
7472;DHT22;3777;48.722;8.110;2023-07-31T05:27:48;19.10;99.90
7472;DHT22;3777;48.722;8.110;2023-07-31T05:30:15;19.20;99.90
7472;DHT22;3777;48.722;8.110;2023-07-31T05:32:42;19.20;99.90
7472;DHT22;3777;48.722;8.110;2023-07-31T05:35:09;19.20;99.90
7472;DHT22;3777;48.722;8.110;2023-07-31T05:37:36;19.20;99.90
7472;DHT22;3777;48.722;8.110;2023-07-31T05:40:04;19.10;99.90
7472;DHT22;3777;48.722;8.110;2023-07-31T05:42:32;18.90;99.90
7472;DHT22;3777;48.722;8.110;2023-07-31T05:45:00;19.00;99.90
7472;DHT22;3777;48.722;8.110;2023-07-31T05:47:27;19.10;99.90
7472;DHT22;3777;48.722;8.110;2023-07-31T05:49:54;19.20;99.90
7472;DHT22;3777;48.722;8.110;2023-07-31T05:52:21;19.20;99.90
7472;DHT22;3777;48.722;8.110;2023-07-31T05:54:48;19.40;99.90
7472;DHT22;3777;48.722;8.110;2023-07-31T05:57:15;19.40;99.90
7472;DHT22;3777;48.722;8.110;2023-07-31T05:59:43;19.50;99.90
7472;DHT22;3777;48.722;8.110;2023-07-31T06:02:10;19.70;99.90
7472;DHT22;3777;48.722;8.110;2023-07-31T06:04:37;19.70;99.90
7472;DHT22;3777;48.722;8.110;2023-07-31T06:07:04;19.90;99.90
7472;DHT22;3777;48.722;8.110;2023-07-31T06:09:31;19.90;99.90
7472;DHT22;3777;48.722;8.110;2023-07-31T06:11:58;19.80;99.90
7472;DHT22;3777;48.722;8.110;2023-07-31T06:14:25;19.70;99.90
7472;DHT22;3777;48.722;8.110;2023-07-31T06:16:54;19.70;99.90
7472;DHT22;3777;48.722;8.110;2023-07-31T06:19:20;19.90;99.90
7472;DHT22;3777;48.722;8.110;2023-07-31T06:21:48;20.10;99.90
7472;DHT22;3777;48.722;8.110;2023-07-31T06:24:15;19.90;99.90
7472;DHT22;3777;48.722;8.110;2023-07-31T06:26:44;20.00;99.90
7472;DHT22;3777;48.722;8.110;2023-07-31T06:29:11;20.20;99.90
7472;DHT22;3777;48.722;8.110;2023-07-31T06:31:38;20.30;99.90
7472;DHT22;3777;48.722;8.110;2023-07-31T06:34:06;20.30;99.90
7472;DHT22;3777;48.722;8.110;2023-07-31T06:36:33;20.30;99.90
7472;DHT22;3777;48.722;8.110;2023-07-31T06:39:00;20.40;99.90
7472;DHT22;3777;48.722;8.110;2023-07-31T06:41:27;20.60;99.90
7472;DHT22;3777;48.722;8.110;2023-07-31T06:43:54;20.70;99.90
7472;DHT22;3777;48.722;8.110;2023-07-31T06:46:21;21.00;99.90
7472;DHT22;3777;48.722;8.110;2023-07-31T06:48:48;21.10;99.90
7472;DHT22;3777;48.722;8.110;2023-07-31T06:51:16;21.40;99.90
7472;DHT22;3777;48.722;8.110;2023-07-31T06:53:44;21.40;99.90
7472;DHT22;3777;48.722;8.110;2023-07-31T06:56:11;21.50;99.90
7472;DHT22;3777;48.722;8.110;2023-07-31T06:58:39;21.30;99.90
7472;DHT22;3777;48.722;8.110;2023-07-31T07:01:06;21.30;99.90
7472;DHT22;3777;48.722;8.110;2023-07-31T07:03:33;21.30;99.90
7472;DHT22;3777;48.722;8.110;2023-07-31T07:06:00;21.10;99.90
7472;DHT22;3777;48.722;8.110;2023-07-31T07:08:28;21.20;99.90
7472;DHT22;3777;48.722;8.110;2023-07-31T07:10:55;21.20;99.90
7472;DHT22;3777;48.722;8.110;2023-07-31T07:13:22;21.30;99.90
7472;DHT22;3777;48.722;8.110;2023-07-31T07:15:49;21.20;99.90
7472;DHT22;3777;48.722;8.110;2023-07-31T07:18:17;21.30;99.90
7472;DHT22;3777;48.722;8.110;2023-07-31T07:20:46;21.10;99.90
7472;DHT22;3777;48.722;8.110;2023-07-31T07:23:14;21.40;99.90
7472;DHT22;3777;48.722;8.110;2023-07-31T07:25:42;21.50;99.90
7472;DHT22;3777;48.722;8.110;2023-07-31T07:28:10;21.90;99.90
7472;DHT22;3777;48.722;8.110;2023-07-31T07:30:37;22.40;99.90
7472;DHT22;3777;48.722;8.110;2023-07-31T07:33:04;22.80;99.90
7472;DHT22;3777;48.722;8.110;2023-07-31T07:35:33;23.00;99.90
7472;DHT22;3777;48.722;8.110;2023-07-31T07:38:00;23.10;99.90
7472;DHT22;3777;48.722;8.110;2023-07-31T07:40:27;23.10;99.90
7472;DHT22;3777;48.722;8.110;2023-07-31T07:42:55;22.90;99.90
7472;DHT22;3777;48.722;8.110;2023-07-31T07:45:22;23.00;99.90
7472;DHT22;3777;48.722;8.110;2023-07-31T07:47:49;23.10;99.90
7472;DHT22;3777;48.722;8.110;2023-07-31T07:50:16;23.20;99.90
7472;DHT22;3777;48.722;8.110;2023-07-31T07:52:43;22.90;99.90
7472;DHT22;3777;48.722;8.110;2023-07-31T07:55:10;23.10;99.90
7472;DHT22;3777;48.722;8.110;2023-07-31T07:57:37;23.50;99.90
7472;DHT22;3777;48.722;8.110;2023-07-31T08:00:07;24.00;99.90
7472;DHT22;3777;48.722;8.110;2023-07-31T08:02:36;24.20;99.90
7472;DHT22;3777;48.722;8.110;2023-07-31T08:05:03;24.30;99.90
7472;DHT22;3777;48.722;8.110;2023-07-31T08:07:30;24.40;99.90
7472;DHT22;3777;48.722;8.110;2023-07-31T08:09:57;24.20;99.90
7472;DHT22;3777;48.722;8.110;2023-07-31T08:12:24;24.30;99.90
7472;DHT22;3777;48.722;8.110;2023-07-31T08:14:51;24.20;99.90
7472;DHT22;3777;48.722;8.110;2023-07-31T08:17:19;24.00;99.90
7472;DHT22;3777;48.722;8.110;2023-07-31T08:19:46;23.60;99.90
7472;DHT22;3777;48.722;8.110;2023-07-31T08:22:13;23.40;99.90
7472;DHT22;3777;48.722;8.110;2023-07-31T08:24:40;23.50;99.90
7472;DHT22;3777;48.722;8.110;2023-07-31T08:27:07;23.50;99.90
7472;DHT22;3777;48.722;8.110;2023-07-31T08:29:34;23.60;99.90
7472;DHT22;3777;48.722;8.110;2023-07-31T08:32:01;23.80;99.90
7472;DHT22;3777;48.722;8.110;2023-07-31T08:34:29;24.10;99.90
7472;DHT22;3777;48.722;8.110;2023-07-31T08:36:56;24.40;99.90
7472;DHT22;3777;48.722;8.110;2023-07-31T08:39:23;24.70;99.90
7472;DHT22;3777;48.722;8.110;2023-07-31T08:41:50;25.30;99.90
7472;DHT22;3777;48.722;8.110;2023-07-31T08:44:18;25.70;99.90
7472;DHT22;3777;48.722;8.110;2023-07-31T08:46:46;25.90;99.90
7472;DHT22;3777;48.722;8.110;2023-07-31T08:49:14;25.90;99.90
7472;DHT22;3777;48.722;8.110;2023-07-31T08:51:43;26.30;99.90
7472;DHT22;3777;48.722;8.110;2023-07-31T08:54:10;26.90;99.90
7472;DHT22;3777;48.722;8.110;2023-07-31T08:56:38;27.30;99.90
7472;DHT22;3777;48.722;8.110;2023-07-31T08:59:06;28.00;99.90
7472;DHT22;3777;48.722;8.110;2023-07-31T09:01:37;28.10;99.90
7472;DHT22;3777;48.722;8.110;2023-07-31T09:04:08;28.10;99.90
7472;DHT22;3777;48.722;8.110;2023-07-31T09:06:36;28.40;99.90
7472;DHT22;3777;48.722;8.110;2023-07-31T09:09:05;28.90;99.90
7472;DHT22;3777;48.722;8.110;2023-07-31T09:11:32;28.90;99.90
7472;DHT22;3777;48.722;8.110;2023-07-31T09:14:00;28.80;99.90
7472;DHT22;3777;48.722;8.110;2023-07-31T09:16:34;28.80;98.70
7472;DHT22;3777;48.722;8.110;2023-07-31T09:19:01;28.90;99.70
7472;DHT22;3777;48.722;8.110;2023-07-31T09:21:29;28.90;98.60
7472;DHT22;3777;48.722;8.110;2023-07-31T09:23:56;28.70;98.40
7472;DHT22;3777;48.722;8.110;2023-07-31T09:26:32;28.60;97.50
7472;DHT22;3777;48.722;8.110;2023-07-31T09:29:00;28.70;98.80
7472;DHT22;3777;48.722;8.110;2023-07-31T09:31:39;28.90;97.20
7472;DHT22;3777;48.722;8.110;2023-07-31T09:34:07;28.50;97.30
7472;DHT22;3777;48.722;8.110;2023-07-31T09:36:40;29.00;96.30
7472;DHT22;3777;48.722;8.110;2023-07-31T09:39:09;30.00;95.90
7472;DHT22;3777;48.722;8.110;2023-07-31T09:41:38;30.20;93.30
7472;DHT22;3777;48.722;8.110;2023-07-31T09:44:06;29.80;91.20
7472;DHT22;3777;48.722;8.110;2023-07-31T09:46:35;29.70;91.50
7472;DHT22;3777;48.722;8.110;2023-07-31T09:49:04;29.60;91.20
7472;DHT22;3777;48.722;8.110;2023-07-31T09:51:32;30.20;93.20
7472;DHT22;3777;48.722;8.110;2023-07-31T09:54:04;30.40;91.60
7472;DHT22;3777;48.722;8.110;2023-07-31T09:56:37;30.80;92.00
7472;DHT22;3777;48.722;8.110;2023-07-31T09:59:08;31.40;90.60
7472;DHT22;3777;48.722;8.110;2023-07-31T10:01:37;31.30;90.20
7472;DHT22;3777;48.722;8.110;2023-07-31T10:04:05;32.40;87.70
7472;DHT22;3777;48.722;8.110;2023-07-31T10:06:35;32.40;81.30
7472;DHT22;3777;48.722;8.110;2023-07-31T10:09:03;32.40;83.10
7472;DHT22;3777;48.722;8.110;2023-07-31T10:11:35;31.70;85.80
7472;DHT22;3777;48.722;8.110;2023-07-31T10:14:05;31.30;84.70
7472;DHT22;3777;48.722;8.110;2023-07-31T10:16:32;30.80;84.00
7472;DHT22;3777;48.722;8.110;2023-07-31T10:19:00;30.60;86.20
7472;DHT22;3777;48.722;8.110;2023-07-31T10:21:27;30.20;86.90
7472;DHT22;3777;48.722;8.110;2023-07-31T10:23:55;29.90;89.30
7472;DHT22;3777;48.722;8.110;2023-07-31T10:26:23;29.40;86.10
7472;DHT22;3777;48.722;8.110;2023-07-31T10:28:52;29.30;85.80
7472;DHT22;3777;48.722;8.110;2023-07-31T10:31:21;29.50;87.60
7472;DHT22;3777;48.722;8.110;2023-07-31T10:33:49;29.70;89.60
7472;DHT22;3777;48.722;8.110;2023-07-31T10:36:18;30.10;90.70
7472;DHT22;3777;48.722;8.110;2023-07-31T10:38:45;31.10;84.50
7472;DHT22;3777;48.722;8.110;2023-07-31T10:41:12;31.30;81.30
7472;DHT22;3777;48.722;8.110;2023-07-31T10:43:40;32.20;84.00
7472;DHT22;3777;48.722;8.110;2023-07-31T10:46:08;31.80;77.00
7472;DHT22;3777;48.722;8.110;2023-07-31T10:48:37;31.20;77.70
7472;DHT22;3777;48.722;8.110;2023-07-31T10:51:08;29.60;78.20
7472;DHT22;3777;48.722;8.110;2023-07-31T10:53:36;29.40;83.80
7472;DHT22;3777;48.722;8.110;2023-07-31T10:56:04;29.50;84.20
7472;DHT22;3777;48.722;8.110;2023-07-31T10:58:32;29.60;84.60
7472;DHT22;3777;48.722;8.110;2023-07-31T11:01:03;29.70;86.10
7472;DHT22;3777;48.722;8.110;2023-07-31T11:03:45;29.10;87.40
7472;DHT22;3777;48.722;8.110;2023-07-31T11:06:13;29.10;87.50
7472;DHT22;3777;48.722;8.110;2023-07-31T11:08:44;29.10;88.20
7472;DHT22;3777;48.722;8.110;2023-07-31T11:11:13;29.90;85.10
7472;DHT22;3777;48.722;8.110;2023-07-31T11:13:42;29.90;84.50
7472;DHT22;3777;48.722;8.110;2023-07-31T11:16:10;30.00;86.80
7472;DHT22;3777;48.722;8.110;2023-07-31T11:18:40;29.60;87.50
7472;DHT22;3777;48.722;8.110;2023-07-31T11:21:11;29.30;87.30
7472;DHT22;3777;48.722;8.110;2023-07-31T11:23:39;29.30;87.40
7472;DHT22;3777;48.722;8.110;2023-07-31T11:26:06;29.20;89.40
7472;DHT22;3777;48.722;8.110;2023-07-31T11:28:35;29.30;89.80
7472;DHT22;3777;48.722;8.110;2023-07-31T11:31:02;28.60;91.80
7472;DHT22;3777;48.722;8.110;2023-07-31T11:33:30;28.50;92.30
7472;DHT22;3777;48.722;8.110;2023-07-31T11:35:57;27.90;92.30
7472;DHT22;3777;48.722;8.110;2023-07-31T11:38:28;27.80;93.30
7472;DHT22;3777;48.722;8.110;2023-07-31T11:40:56;27.20;92.90
7472;DHT22;3777;48.722;8.110;2023-07-31T11:43:23;27.20;95.20
7472;DHT22;3777;48.722;8.110;2023-07-31T11:45:51;27.20;94.00
7472;DHT22;3777;48.722;8.110;2023-07-31T11:48:20;27.10;96.00
7472;DHT22;3777;48.722;8.110;2023-07-31T11:50:48;27.00;97.00
7472;DHT22;3777;48.722;8.110;2023-07-31T11:53:18;27.00;95.20
7472;DHT22;3777;48.722;8.110;2023-07-31T11:55:47;27.30;97.50
7472;DHT22;3777;48.722;8.110;2023-07-31T11:58:15;27.40;95.40
7472;DHT22;3777;48.722;8.110;2023-07-31T12:00:43;27.50;97.10
7472;DHT22;3777;48.722;8.110;2023-07-31T12:03:10;27.40;94.00
7472;DHT22;3777;48.722;8.110;2023-07-31T12:05:37;27.50;93.70
7472;DHT22;3777;48.722;8.110;2023-07-31T12:08:09;27.60;93.10
7472;DHT22;3777;48.722;8.110;2023-07-31T12:10:38;27.30;95.60
7472;DHT22;3777;48.722;8.110;2023-07-31T12:13:08;27.40;93.90
7472;DHT22;3777;48.722;8.110;2023-07-31T12:15:40;27.10;95.20
7472;DHT22;3777;48.722;8.110;2023-07-31T12:18:10;27.30;94.60
7472;DHT22;3777;48.722;8.110;2023-07-31T12:20:41;27.30;95.70
7472;DHT22;3777;48.722;8.110;2023-07-31T12:23:17;27.40;95.30
7472;DHT22;3777;48.722;8.110;2023-07-31T12:25:44;27.50;96.30
7472;DHT22;3777;48.722;8.110;2023-07-31T12:28:13;27.70;94.60
7472;DHT22;3777;48.722;8.110;2023-07-31T12:30:40;27.80;94.40
7472;DHT22;3777;48.722;8.110;2023-07-31T12:33:14;27.60;95.50
7472;DHT22;3777;48.722;8.110;2023-07-31T12:35:43;27.60;94.20
7472;DHT22;3777;48.722;8.110;2023-07-31T12:38:11;27.80;96.40
7472;DHT22;3777;48.722;8.110;2023-07-31T12:40:39;27.90;93.50
7472;DHT22;3777;48.722;8.110;2023-07-31T12:43:06;27.70;94.60
7472;DHT22;3777;48.722;8.110;2023-07-31T12:45:35;27.50;95.30
7472;DHT22;3777;48.722;8.110;2023-07-31T12:48:02;27.70;94.60
7472;DHT22;3777;48.722;8.110;2023-07-31T12:50:29;27.50;94.00
7472;DHT22;3777;48.722;8.110;2023-07-31T12:52:57;27.60;93.80
7472;DHT22;3777;48.722;8.110;2023-07-31T12:55:24;27.70;94.50
7472;DHT22;3777;48.722;8.110;2023-07-31T12:57:51;27.60;93.90
7472;DHT22;3777;48.722;8.110;2023-07-31T13:00:18;27.20;93.90
7472;DHT22;3777;48.722;8.110;2023-07-31T13:02:46;27.10;93.60
7472;DHT22;3777;48.722;8.110;2023-07-31T13:05:14;27.10;94.80
7472;DHT22;3777;48.722;8.110;2023-07-31T13:07:41;26.70;94.80
7472;DHT22;3777;48.722;8.110;2023-07-31T13:10:08;26.80;95.30
7472;DHT22;3777;48.722;8.110;2023-07-31T13:12:35;27.00;95.70
7472;DHT22;3777;48.722;8.110;2023-07-31T13:15:02;26.90;95.50
7472;DHT22;3777;48.722;8.110;2023-07-31T13:17:29;27.10;95.30
7472;DHT22;3777;48.722;8.110;2023-07-31T13:19:57;27.10;94.90
7472;DHT22;3777;48.722;8.110;2023-07-31T13:22:24;27.30;96.30
7472;DHT22;3777;48.722;8.110;2023-07-31T13:24:51;27.40;96.60
7472;DHT22;3777;48.722;8.110;2023-07-31T13:27:18;27.40;94.90
7472;DHT22;3777;48.722;8.110;2023-07-31T13:29:47;27.50;95.90
7472;DHT22;3777;48.722;8.110;2023-07-31T13:32:16;27.60;96.80
7472;DHT22;3777;48.722;8.110;2023-07-31T13:34:43;27.60;96.80
7472;DHT22;3777;48.722;8.110;2023-07-31T13:37:11;27.80;95.70
7472;DHT22;3777;48.722;8.110;2023-07-31T13:39:38;27.80;95.80
7472;DHT22;3777;48.722;8.110;2023-07-31T13:42:06;27.30;96.60
7472;DHT22;3777;48.722;8.110;2023-07-31T13:44:33;27.00;95.70
7472;DHT22;3777;48.722;8.110;2023-07-31T13:47:01;27.00;95.80
7472;DHT22;3777;48.722;8.110;2023-07-31T13:49:28;26.50;96.20
7472;DHT22;3777;48.722;8.110;2023-07-31T13:51:55;26.70;97.90
7472;DHT22;3777;48.722;8.110;2023-07-31T13:54:23;26.80;97.40
7472;DHT22;3777;48.722;8.110;2023-07-31T13:56:51;27.10;97.80
7472;DHT22;3777;48.722;8.110;2023-07-31T13:59:18;27.50;97.40
7472;DHT22;3777;48.722;8.110;2023-07-31T14:01:46;27.60;98.10
7472;DHT22;3777;48.722;8.110;2023-07-31T14:04:13;27.80;97.30
7472;DHT22;3777;48.722;8.110;2023-07-31T14:06:40;28.00;96.90
7472;DHT22;3777;48.722;8.110;2023-07-31T14:09:07;27.80;95.80
7472;DHT22;3777;48.722;8.110;2023-07-31T14:11:35;28.00;97.00
7472;DHT22;3777;48.722;8.110;2023-07-31T14:14:03;28.00;95.90
7472;DHT22;3777;48.722;8.110;2023-07-31T14:16:30;27.60;96.70
7472;DHT22;3777;48.722;8.110;2023-07-31T14:18:57;27.70;95.90
7472;DHT22;3777;48.722;8.110;2023-07-31T14:21:24;27.60;96.90
7472;DHT22;3777;48.722;8.110;2023-07-31T14:23:51;27.50;96.40
7472;DHT22;3777;48.722;8.110;2023-07-31T14:26:18;27.60;96.90
7472;DHT22;3777;48.722;8.110;2023-07-31T14:28:47;27.40;97.10
7472;DHT22;3777;48.722;8.110;2023-07-31T14:31:14;27.40;97.50
7472;DHT22;3777;48.722;8.110;2023-07-31T14:33:41;27.50;98.00
7472;DHT22;3777;48.722;8.110;2023-07-31T14:36:08;27.40;98.20
7472;DHT22;3777;48.722;8.110;2023-07-31T14:38:35;27.50;97.10
7472;DHT22;3777;48.722;8.110;2023-07-31T14:41:02;27.60;97.20
7472;DHT22;3777;48.722;8.110;2023-07-31T14:43:29;27.50;95.90
7472;DHT22;3777;48.722;8.110;2023-07-31T14:45:57;27.30;98.10
7472;DHT22;3777;48.722;8.110;2023-07-31T14:48:25;27.50;98.30
7472;DHT22;3777;48.722;8.110;2023-07-31T14:50:53;27.40;96.50
7472;DHT22;3777;48.722;8.110;2023-07-31T14:53:20;27.40;97.60
7472;DHT22;3777;48.722;8.110;2023-07-31T14:55:47;27.40;98.10
7472;DHT22;3777;48.722;8.110;2023-07-31T14:58:14;27.50;97.70
7472;DHT22;3777;48.722;8.110;2023-07-31T15:00:42;27.60;97.70
7472;DHT22;3777;48.722;8.110;2023-07-31T15:03:11;27.60;97.70
7472;DHT22;3777;48.722;8.110;2023-07-31T15:05:38;27.30;97.20
7472;DHT22;3777;48.722;8.110;2023-07-31T15:08:05;27.30;99.00
7472;DHT22;3777;48.722;8.110;2023-07-31T15:10:32;27.20;98.50
7472;DHT22;3777;48.722;8.110;2023-07-31T15:12:59;27.30;99.90
7472;DHT22;3777;48.722;8.110;2023-07-31T15:15:27;27.40;98.70
7472;DHT22;3777;48.722;8.110;2023-07-31T15:17:54;27.40;98.80
7472;DHT22;3777;48.722;8.110;2023-07-31T15:20:22;27.50;98.00
7472;DHT22;3777;48.722;8.110;2023-07-31T15:22:49;27.50;97.50
7472;DHT22;3777;48.722;8.110;2023-07-31T15:25:16;27.40;98.80
7472;DHT22;3777;48.722;8.110;2023-07-31T15:27:43;27.50;99.70
7472;DHT22;3777;48.722;8.110;2023-07-31T15:30:10;27.60;98.40
7472;DHT22;3777;48.722;8.110;2023-07-31T15:32:37;27.60;98.10
7472;DHT22;3777;48.722;8.110;2023-07-31T15:35:06;27.60;98.40
7472;DHT22;3777;48.722;8.110;2023-07-31T15:37:34;27.50;97.60
7472;DHT22;3777;48.722;8.110;2023-07-31T15:40:01;27.50;97.50
7472;DHT22;3777;48.722;8.110;2023-07-31T15:42:28;27.50;97.70
7472;DHT22;3777;48.722;8.110;2023-07-31T15:44:55;27.50;97.20
7472;DHT22;3777;48.722;8.110;2023-07-31T15:47:22;27.40;98.40
7472;DHT22;3777;48.722;8.110;2023-07-31T15:49:49;27.40;97.80
7472;DHT22;3777;48.722;8.110;2023-07-31T15:52:16;27.40;97.70
7472;DHT22;3777;48.722;8.110;2023-07-31T15:54:44;27.20;99.90
7472;DHT22;3777;48.722;8.110;2023-07-31T15:57:11;27.20;99.60
7472;DHT22;3777;48.722;8.110;2023-07-31T15:59:38;27.10;98.60
7472;DHT22;3777;48.722;8.110;2023-07-31T16:02:07;27.20;98.00
7472;DHT22;3777;48.722;8.110;2023-07-31T16:04:35;27.10;98.40